Time;durP1;ratioP1;P1;durP2;ratioP2;P2;SDS_P1;SDS_P2;PMS_P1;PMS_P2;Temp;Humidity;BMP_temperature;BMP_pressure;BME280_temperature;BME280_humidity;BME280_pressure;Samples;Min_cycle;Max_cycle;Signal;HPM_P1;HPM_P2
2023/04/30 00:00:18;;;;;;;28.00;15.63;;;;;;;;;;6268559;28;20475;-51
2023/04/30 00:03:38;;;;;;;30.00;15.02;;;;;;;;;;6269090;28;20056;-56
2023/04/30 00:06:39;;;;;;;25.88;14.32;;;;;;;;;;6269594;28;20052;-49
2023/04/30 00:09:39;;;;;;;27.50;14.32;;;;;;;;;;6269605;28;20063;-51
2023/04/30 00:12:40;;;;;;;27.40;14.60;;;;;;;;;;6270354;28;20052;-49
2023/04/30 00:15:41;;;;;;;26.85;13.82;;;;;;;;;;6271440;28;20490;-50
2023/04/30 00:18:42;;;;;;;29.42;15.50;;;;;;;;;;6266276;28;20060;-59
2023/04/30 00:21:42;;;;;;;28.27;14.40;;;;;;;;;;6271351;28;20044;-48
2023/04/30 00:24:43;;;;;;;28.52;14.77;;;;;;;;;;6269000;28;20048;-50
2023/04/30 00:27:43;;;;;;;29.05;14.85;;;;;;;;;;6264573;28;20040;-53
2023/04/30 00:30:44;;;;;;;31.73;15.70;;;;;;;;;;6269032;28;20135;-53
2023/04/30 00:33:45;;;;;;;32.13;15.68;;;;;;;;;;6269003;28;20138;-64
2023/04/30 00:36:45;;;;;;;32.42;15.60;;;;;;;;;;6264069;28;20041;-60
2023/04/30 00:39:46;;;;;;;34.40;17.20;;;;;;;;;;6268643;28;20048;-59
2023/04/30 00:42:47;;;;;;;32.88;16.73;;;;;;;;;;6264248;28;20147;-48
2023/04/30 00:45:48;;;;;;;30.92;15.68;;;;;;;;;;6267199;28;20041;-47
2023/04/30 00:48:49;;;;;;;29.02;14.52;;;;;;;;;;6266492;28;20047;-62
2023/04/30 00:51:49;;;;;;;26.63;14.80;;;;;;;;;;6275370;28;20052;-52
2023/04/30 00:54:52;;;;;;;40.30;15.52;;;;;;;;;;6269907;28;20114;-62
2023/04/30 00:57:53;;;;;;;26.70;13.75;;;;;;;;;;6263148;28;20055;-51
2023/04/30 01:00:54;;;;;;;28.08;14.82;;;;;;;;;;6265026;28;20415;-53
2023/04/30 01:03:55;;;;;;;27.23;13.40;;;;;;;;;;6264638;28;20045;-50
2023/04/30 01:06:56;;;;;;;28.42;13.73;;;;;;;;;;6265007;28;20049;-49
2023/04/30 01:09:57;;;;;;;28.95;14.18;;;;;;;;;;6267439;28;20041;-58
2023/04/30 01:13:06;;;;;;;31.38;15.00;;;;;;;;;;6278124;28;20055;-64
2023/04/30 01:16:27;;;;;;;26.92;13.68;;;;;;;;;;6273938;28;20049;-57
2023/04/30 01:19:33;;;;;;;29.27;14.07;;;;;;;;;;6269649;28;20057;-50
2023/04/30 01:22:39;;;;;;;28.50;14.45;;;;;;;;;;6272211;28;20198;-64
2023/04/30 01:25:48;;;;;;;32.05;14.43;;;;;;;;;;6269094;28;20067;-48
2023/04/30 01:28:52;;;;;;;28.85;14.15;;;;;;;;;;6269898;28;20087;-66
2023/04/30 01:31:52;;;;;;;31.00;14.50;;;;;;;;;;6270374;28;20080;-48
2023/04/30 01:34:53;;;;;;;31.38;14.77;;;;;;;;;;6275752;28;20045;-50
2023/04/30 01:38:10;;;;;;;31.48;15.25;;;;;;;;;;6269112;28;20048;-52
2023/04/30 01:41:29;;;;;;;33.15;14.73;;;;;;;;;;6267134;28;20051;-53
2023/04/30 01:44:48;;;;;;;34.13;16.65;;;;;;;;;;6272827;28;20114;-52
2023/04/30 01:48:02;;;;;;;32.60;14.75;;;;;;;;;;6272059;28;20136;-53
2023/04/30 01:51:38;;;;;;;29.52;15.23;;;;;;;;;;6273079;28;20040;-51
2023/04/30 01:54:51;;;;;;;30.98;15.40;;;;;;;;;;6269336;28;20127;-51
2023/04/30 01:57:57;;;;;;;34.53;16.08;;;;;;;;;;6270260;28;20044;-49
2023/04/30 02:00:57;;;;;;;31.15;15.95;;;;;;;;;;6271149;28;20041;-61
2023/04/30 02:03:58;;;;;;;30.98;14.98;;;;;;;;;;6273213;28;20141;-49
2023/04/30 02:06:59;;;;;;;29.20;14.32;;;;;;;;;;6271383;28;20388;-49
2023/04/30 02:10:00;;;;;;;29.75;15.20;;;;;;;;;;6267842;28;20048;-53
2023/04/30 02:13:01;;;;;;;31.83;14.05;;;;;;;;;;6270203;28;20040;-50
2023/04/30 02:16:03;;;;;;;28.35;15.55;;;;;;;;;;6271588;28;20393;-50
2023/04/30 02:19:03;;;;;;;28.35;13.70;;;;;;;;;;6270423;28;20052;-51
2023/04/30 02:22:04;;;;;;;27.48;13.52;;;;;;;;;;6271607;28;20502;-50
2023/04/30 02:25:05;;;;;;;25.10;13.50;;;;;;;;;;6272285;28;20036;-54
2023/04/30 02:28:05;;;;;;;26.75;14.27;;;;;;;;;;6276207;28;20128;-52
2023/04/30 02:31:06;;;;;;;26.70;13.05;;;;;;;;;;6272278;28;20399;-49
2023/04/30 02:34:07;;;;;;;23.05;12.70;;;;;;;;;;6269989;28;20087;-48
2023/04/30 02:37:07;;;;;;;24.83;12.75;;;;;;;;;;6269515;28;20750;-50
2023/04/30 02:40:09;;;;;;;23.77;11.93;;;;;;;;;;6269331;28;20045;-66
2023/04/30 02:43:10;;;;;;;20.40;11.67;;;;;;;;;;6281132;28;20041;-50
2023/04/30 02:46:10;;;;;;;19.92;10.73;;;;;;;;;;6267661;28;20040;-66
2023/04/30 02:49:11;;;;;;;21.88;11.02;;;;;;;;;;6270555;28;20471;-52
2023/04/30 02:52:11;;;;;;;19.58;11.02;;;;;;;;;;6268134;28;21083;-48
2023/04/30 02:55:12;;;;;;;16.85;10.05;;;;;;;;;;6268781;28;20041;-50
2023/04/30 02:58:13;;;;;;;16.05;10.20;;;;;;;;;;6266852;28;20491;-51
2023/04/30 03:01:13;;;;;;;15.48;9.75;;;;;;;;;;6263708;28;20286;-55
2023/04/30 03:04:14;;;;;;;15.98;9.88;;;;;;;;;;6269683;28;20674;-48
2023/04/30 03:07:15;;;;;;;18.05;11.10;;;;;;;;;;6269065;28;20127;-51
2023/04/30 03:10:17;;;;;;;18.98;11.65;;;;;;;;;;6280452;28;20560;-49
2023/04/30 03:13:18;;;;;;;20.75;12.50;;;;;;;;;;6282241;28;20037;-56
2023/04/30 03:16:20;;;;;;;22.83;13.43;;;;;;;;;;6278183;28;20036;-66
2023/04/30 03:19:23;;;;;;;24.83;14.87;;;;;;;;;;6281267;28;20036;-48
2023/04/30 03:22:25;;;;;;;25.45;15.00;;;;;;;;;;6289910;28;20411;-53
2023/04/30 03:25:25;;;;;;;24.00;14.85;;;;;;;;;;6290421;28;20040;-54
2023/04/30 03:28:26;;;;;;;27.55;14.98;;;;;;;;;;6274580;28;20044;-50
2023/04/30 03:31:27;;;;;;;28.35;15.27;;;;;;;;;;6270221;28;20186;-49
2023/04/30 03:34:30;;;;;;;28.13;16.08;;;;;;;;;;6268452;28;20131;-52
2023/04/30 03:37:30;;;;;;;31.10;16.75;;;;;;;;;;6278308;28;20052;-50
2023/04/30 03:40:31;;;;;;;28.42;16.77;;;;;;;;;;6271640;28;20175;-52
2023/04/30 03:43:32;;;;;;;38.60;18.50;;;;;;;;;;6270022;28;20049;-52
2023/04/30 03:46:32;;;;;;;28.83;16.75;;;;;;;;;;6265578;28;20037;-54
2023/04/30 03:49:33;;;;;;;27.58;16.02;;;;;;;;;;6265060;28;20060;-53
2023/04/30 03:52:35;;;;;;;31.77;17.10;;;;;;;;;;6266288;28;20487;-51
2023/04/30 03:55:36;;;;;;;29.90;16.50;;;;;;;;;;6265886;28;20130;-49
2023/04/30 03:58:36;;;;;;;34.42;18.15;;;;;;;;;;6283261;28;20457;-53
2023/04/30 04:01:37;;;;;;;32.05;17.42;;;;;;;;;;6291163;28;20518;-61
2023/04/30 04:04:38;;;;;;;31.70;16.85;;;;;;;;;;6290751;28;20131;-50
2023/04/30 04:07:38;;;;;;;27.23;14.48;;;;;;;;;;6288380;28;20579;-57
2023/04/30 04:10:39;;;;;;;24.65;12.95;;;;;;;;;;6287927;28;20052;-50
2023/04/30 04:13:40;;;;;;;26.00;13.60;;;;;;;;;;6286483;28;20049;-53
2023/04/30 04:16:41;;;;;;;28.42;15.65;;;;;;;;;;6284671;28;20037;-53
2023/04/30 04:19:42;;;;;;;23.90;14.30;;;;;;;;;;6285865;28;20476;-51
2023/04/30 04:22:42;;;;;;;27.25;14.88;;;;;;;;;;6286228;28;20163;-51
2023/04/30 04:25:43;;;;;;;27.83;15.35;;;;;;;;;;6287805;28;20275;-55
2023/04/30 04:28:44;;;;;;;26.27;13.82;;;;;;;;;;6288899;28;20040;-53
2023/04/30 04:31:45;;;;;;;26.13;13.90;;;;;;;;;;6290559;28;20049;-62
2023/04/30 04:34:46;;;;;;;28.13;14.02;;;;;;;;;;6290425;28;20673;-55
2023/04/30 04:37:47;;;;;;;23.38;12.82;;;;;;;;;;6289177;28;20052;-53
2023/04/30 04:40:55;;;;;;;23.05;12.00;;;;;;;;;;6290405;28;20052;-56
2023/04/30 04:43:55;;;;;;;22.77;12.10;;;;;;;;;;6290449;28;20040;-51
2023/04/30 04:46:57;;;;;;;25.05;12.45;;;;;;;;;;6289446;28;20055;-64
2023/04/30 04:49:58;;;;;;;21.57;12.33;;;;;;;;;;6289865;28;20455;-54
2023/04/30 04:52:58;;;;;;;20.02;11.45;;;;;;;;;;6295374;28;20376;-51
2023/04/30 04:55:59;;;;;;;23.55;11.95;;;;;;;;;;6294909;28;20514;-52
2023/04/30 04:59:00;;;;;;;21.75;11.82;;;;;;;;;;6294433;28;20037;-60
2023/04/30 05:02:00;;;;;;;23.13;11.95;;;;;;;;;;6295361;28;20052;-51
2023/04/30 05:05:01;;;;;;;21.58;11.55;;;;;;;;;;6295076;28;20052;-50
2023/04/30 05:08:01;;;;;;;25.00;12.63;;;;;;;;;;6293819;28;20433;-50
2023/04/30 05:11:02;;;;;;;22.27;12.90;;;;;;;;;;6294836;28;20151;-50
2023/04/30 05:14:02;;;;;;;24.05;12.43;;;;;;;;;;6295078;28;20052;-50
2023/04/30 05:17:03;;;;;;;26.50;14.23;;;;;;;;;;6293831;28;20045;-52
2023/04/30 05:20:06;;;;;;;23.90;13.55;;;;;;;;;;6294572;28;20059;-50
2023/04/30 05:23:07;;;;;;;26.88;13.82;;;;;;;;;;6294801;28;20419;-65
2023/04/30 05:26:07;;;;;;;25.70;14.32;;;;;;;;;;6294259;28;20043;-55
2023/04/30 05:29:10;;;;;;;24.90;13.93;;;;;;;;;;6293744;28;20102;-54
2023/04/30 05:32:11;;;;;;;22.98;12.90;;;;;;;;;;6294668;28;20057;-49
2023/04/30 05:35:11;;;;;;;20.58;11.45;;;;;;;;;;6294405;28;20773;-50
2023/04/30 05:38:12;;;;;;;19.70;12.00;;;;;;;;;;6293178;28;20040;-62
2023/04/30 05:41:12;;;;;;;25.83;13.75;;;;;;;;;;6294308;28;20381;-50
2023/04/30 05:44:13;;;;;;;27.98;13.50;;;;;;;;;;6294160;28;20045;-50
2023/04/30 05:47:13;;;;;;;21.90;12.07;;;;;;;;;;6293117;28;20407;-49
2023/04/30 05:50:14;;;;;;;20.42;11.60;;;;;;;;;;6293986;28;20048;-52
2023/04/30 05:53:15;;;;;;;19.83;11.68;;;;;;;;;;6294220;28;20102;-52
2023/04/30 05:56:15;;;;;;;21.33;11.50;;;;;;;;;;6293384;28;20047;-52
2023/04/30 05:59:16;;;;;;;21.48;11.30;;;;;;;;;;6293196;28;20063;-50
2023/04/30 06:02:16;;;;;;;22.33;11.98;;;;;;;;;;6293827;28;20078;-52
2023/04/30 06:05:17;;;;;;;19.88;11.40;;;;;;;;;;6293598;28;20144;-52
2023/04/30 06:08:18;;;;;;;24.83;12.02;;;;;;;;;;6292493;28;20041;-51
2023/04/30 06:11:19;;;;;;;18.73;11.82;;;;;;;;;;6293636;28;20049;-52
2023/04/30 06:14:21;;;;;;;23.80;13.05;;;;;;;;;;6293548;28;20105;-50
2023/04/30 06:17:22;;;;;;;24.60;13.70;;;;;;;;;;6292443;28;20037;-50
2023/04/30 06:20:22;;;;;;;28.52;16.30;;;;;;;;;;6293390;28;20459;-53
2023/04/30 06:23:23;;;;;;;28.05;15.98;;;;;;;;;;6293447;28;20495;-53
2023/04/30 06:26:24;;;;;;;34.58;20.25;;;;;;;;;;6292469;28;20040;-53
2023/04/30 06:29:24;;;;;;;33.65;20.00;;;;;;;;;;6292737;28;20113;-51
2023/04/30 06:32:25;;;;;;;35.97;21.95;;;;;;;;;;6293330;28;20033;-53
2023/04/30 06:35:26;;;;;;;29.98;19.90;;;;;;;;;;6292994;28;20055;-52
2023/04/30 06:38:27;;;;;;;33.50;18.52;;;;;;;;;;6292087;28;20756;-51
2023/04/30 06:41:27;;;;;;;29.85;16.85;;;;;;;;;;6292577;28;20127;-51
2023/04/30 06:44:28;;;;;;;19.80;10.55;;;;;;;;;;6291481;28;20052;-51
2023/04/30 06:47:33;;;;;;;20.23;11.50;;;;;;;;;;6291774;28;20454;-50
2023/04/30 06:50:33;;;;;;;17.73;9.45;;;;;;;;;;6292632;28;20135;-52
2023/04/30 06:53:34;;;;;;;18.38;10.77;;;;;;;;;;6292649;28;20051;-51
2023/04/30 06:56:35;;;;;;;22.80;11.57;;;;;;;;;;6292034;28;20541;-50
2023/04/30 06:59:35;;;;;;;21.83;10.20;;;;;;;;;;6292025;28;20057;-56
2023/04/30 07:02:36;;;;;;;15.68;9.07;;;;;;;;;;6292479;28;20499;-64
2023/04/30 07:05:37;;;;;;;14.77;8.02;;;;;;;;;;6291810;28;20072;-57
2023/04/30 07:08:39;;;;;;;16.05;8.18;;;;;;;;;;6291402;28;20047;-57
2023/04/30 07:11:40;;;;;;;14.27;9.15;;;;;;;;;;6292302;28;20044;-50
2023/04/30 07:14:41;;;;;;;19.50;9.95;;;;;;;;;;6291508;28;20617;-52
2023/04/30 07:17:42;;;;;;;22.30;11.68;;;;;;;;;;6290872;28;20502;-54
2023/04/30 07:20:42;;;;;;;20.58;10.88;;;;;;;;;;6292108;28;20044;-50
2023/04/30 07:23:44;;;;;;;24.52;13.68;;;;;;;;;;6291944;28;20610;-51
2023/04/30 07:26:45;;;;;;;20.90;12.18;;;;;;;;;;6291074;28;20048;-53
2023/04/30 07:29:45;;;;;;;18.55;8.85;;;;;;;;;;6291283;28;20040;-51
2023/04/30 07:32:46;;;;;;;18.13;8.32;;;;;;;;;;6291930;28;20045;-55
2023/04/30 07:35:47;;;;;;;18.63;9.90;;;;;;;;;;6291506;28;20040;-52
2023/04/30 07:38:48;;;;;;;21.65;10.23;;;;;;;;;;6290469;28;20052;-52
2023/04/30 07:41:49;;;;;;;18.17;11.05;;;;;;;;;;6291360;28;20072;-54
2023/04/30 07:44:49;;;;;;;19.00;11.00;;;;;;;;;;6291414;28;20051;-54
2023/04/30 07:47:50;;;;;;;19.95;11.45;;;;;;;;;;6290336;28;20483;-49
2023/04/30 07:50:50;;;;;;;17.27;9.60;;;;;;;;;;6291167;28;20040;-61
2023/04/30 07:53:52;;;;;;;22.25;10.48;;;;;;;;;;6291419;28;20048;-64
2023/04/30 07:56:52;;;;;;;15.93;8.35;;;;;;;;;;6290148;28;20053;-67
2023/04/30 07:59:53;;;;;;;11.23;6.40;;;;;;;;;;6290912;28;20068;-55
2023/04/30 08:02:53;;;;;;;10.93;6.72;;;;;;;;;;6291112;28;20045;-50
2023/04/30 08:05:54;;;;;;;10.52;5.93;;;;;;;;;;6290614;28;20135;-67
2023/04/30 08:08:55;;;;;;;11.75;6.28;;;;;;;;;;6289935;28;20180;-49
2023/04/30 08:11:56;;;;;;;15.52;8.20;;;;;;;;;;6290866;28;20052;-51
2023/04/30 08:15:03;;;;;;;15.88;8.40;;;;;;;;;;6290775;28;20492;-63
2023/04/30 08:18:04;;;;;;;10.32;6.65;;;;;;;;;;6289581;28;20067;-55
2023/04/30 08:21:05;;;;;;;12.55;6.20;;;;;;;;;;6290630;28;20040;-54
2023/04/30 08:24:06;;;;;;;10.35;6.45;;;;;;;;;;6290593;28;20051;-52
2023/04/30 08:27:06;;;;;;;10.65;5.82;;;;;;;;;;6289043;28;20483;-52
2023/04/30 08:30:07;;;;;;;10.15;5.57;;;;;;;;;;6290145;28;20437;-63
2023/04/30 08:33:08;;;;;;;9.80;6.10;;;;;;;;;;6290671;28;20106;-49
2023/04/30 08:36:09;;;;;;;11.00;5.68;;;;;;;;;;6290296;28;20075;-51
2023/04/30 08:39:09;;;;;;;9.90;5.18;;;;;;;;;;6288120;28;20413;-50
2023/04/30 08:42:13;;;;;;;11.20;5.50;;;;;;;;;;6290548;28;20055;-50
2023/04/30 08:45:15;;;;;;;10.80;5.05;;;;;;;;;;6290437;28;20103;-51
2023/04/30 08:48:15;;;;;;;;;;;;;;;;;;6289784;28;20050;-53
2023/04/30 08:51:16;;;;;;;11.80;4.70;;;;;;;;;;6290373;28;20582;-52
2023/04/30 08:54:17;;;;;;;9.75;5.50;;;;;;;;;;6290349;28;20048;-54
2023/04/30 08:57:18;;;;;;;8.60;5.22;;;;;;;;;;6289436;28;20052;-55
2023/04/30 09:00:19;;;;;;;9.70;5.03;;;;;;;;;;6289900;28;20410;-51
2023/04/30 09:03:22;;;;;;;7.70;4.85;;;;;;;;;;6290360;28;20056;-54
2023/04/30 09:06:23;;;;;;;8.52;4.95;;;;;;;;;;6288488;28;20056;-67
2023/04/30 09:09:37;;;;;;;9.15;5.70;;;;;;;;;;6289131;28;20055;-50
2023/04/30 09:12:39;;;;;;;10.00;4.95;;;;;;;;;;6290285;28;20044;-53
2023/04/30 09:15:40;;;;;;;11.47;5.63;;;;;;;;;;6290216;28;20036;-52
2023/04/30 09:18:41;;;;;;;6.72;4.40;;;;;;;;;;6288891;28;20062;-53
2023/04/30 09:21:41;;;;;;;8.55;4.60;;;;;;;;;;6289749;28;20048;-51
2023/04/30 09:24:47;;;;;;;9.15;4.80;;;;;;;;;;6289950;28;20477;-52
2023/04/30 09:28:05;;;;;;;8.77;4.40;;;;;;;;;;6289708;28;20059;-50
2023/04/30 09:31:19;;;;;;;7.07;4.50;;;;;;;;;;6288788;28;20124;-53
2023/04/30 09:34:33;;;;;;;9.32;4.55;;;;;;;;;;6289889;28;20135;-51
2023/04/30 09:37:37;;;;;;;7.68;4.57;;;;;;;;;;6292180;28;20492;-62
2023/04/30 09:40:40;;;;;;;7.43;4.60;;;;;;;;;;6293692;28;20483;-64
2023/04/30 09:43:44;;;;;;;7.15;3.65;;;;;;;;;;6293499;28;20049;-56
2023/04/30 09:46:44;;;;;;;9.45;4.30;;;;;;;;;;6294167;28;20508;-56
2023/04/30 09:49:52;;;;;;;8.93;4.05;;;;;;;;;;6294112;28;20053;-52
2023/04/30 09:52:53;;;;;;;6.85;4.10;;;;;;;;;;6293018;28;20048;-55
2023/04/30 09:55:57;;;;;;;9.35;4.15;;;;;;;;;;6294321;28;20517;-50
2023/04/30 09:58:59;;;;;;;7.65;4.20;;;;;;;;;;6294075;28;20086;-51
2023/04/30 10:02:02;;;;;;;10.27;5.00;;;;;;;;;;6292794;28;20454;-52
2023/04/30 10:05:03;;;;;;;9.60;4.60;;;;;;;;;;6293343;28;20129;-55
2023/04/30 10:08:09;;;;;;;8.37;4.20;;;;;;;;;;6293875;28;20052;-52
2023/04/30 10:11:15;;;;;;;10.75;4.90;;;;;;;;;;6293239;28;20299;-67
2023/04/30 10:14:19;;;;;;;8.10;4.65;;;;;;;;;;6292026;28;20496;-65
2023/04/30 10:17:23;;;;;;;7.43;4.15;;;;;;;;;;6293681;28;20490;-53
2023/04/30 10:20:25;;;;;;;8.95;4.15;;;;;;;;;;6293614;28;20392;-53
2023/04/30 10:23:26;;;;;;;7.40;4.10;;;;;;;;;;6292285;28;20033;-53
2023/04/30 10:26:28;;;;;;;8.60;5.40;;;;;;;;;;6293302;28;20064;-61
2023/04/30 10:29:29;;;;;;;8.35;4.97;;;;;;;;;;6293198;28;20513;-50
2023/04/30 10:32:37;;;;;;;7.38;4.68;;;;;;;;;;6292847;28;20564;-53
2023/04/30 10:35:57;;;;;;;7.70;4.10;;;;;;;;;;6292099;28;20045;-58
2023/04/30 10:38:59;;;;;;;8.75;4.65;;;;;;;;;;6293313;28;20086;-53
2023/04/30 10:42:05;;;;;;;7.72;3.95;;;;;;;;;;6292898;28;20052;-53
2023/04/30 10:45:09;;;;;;;7.85;3.90;;;;;;;;;;6291801;28;20039;-54
2023/04/30 10:48:10;;;;;;;7.47;3.05;;;;;;;;;;6291752;28;20044;-50
2023/04/30 10:51:10;;;;;;;8.88;3.03;;;;;;;;;;6292761;28;20072;-53
2023/04/30 10:54:16;;;;;;;6.13;3.25;;;;;;;;;;6292260;28;20106;-52
2023/04/30 10:57:18;;;;;;;7.85;3.97;;;;;;;;;;6291451;28;20057;-55
2023/04/30 11:00:23;;;;;;;12.00;3.85;;;;;;;;;;6292608;28;20567;-53
2023/04/30 11:03:24;;;;;;;7.43;3.88;;;;;;;;;;6292553;28;20048;-49
2023/04/30 11:06:25;;;;;;;8.02;4.25;;;;;;;;;;6290931;28;20058;-49
2023/04/30 11:09:43;;;;;;;8.48;3.90;;;;;;;;;;6292392;28;20093;-50
2023/04/30 11:12:48;;;;;;;9.82;4.78;;;;;;;;;;6292332;28;20071;-56
2023/04/30 11:15:49;;;;;;;8.85;4.15;;;;;;;;;;6291695;28;20074;-52
2023/04/30 11:18:50;;;;;;;7.38;3.97;;;;;;;;;;6291212;28;20482;-54
2023/04/30 11:22:03;;;;;;;10.10;4.68;;;;;;;;;;6291822;28;20834;-55
2023/04/30 11:25:05;;;;;;;9.85;4.05;;;;;;;;;;6290905;28;20600;-53
2023/04/30 11:28:07;;;;;;;9.13;4.15;;;;;;;;;;6290724;28;20185;-52
2023/04/30 11:31:08;;;;;;;;;;;;;;;;;;6292079;28;20536;-52
2023/04/30 11:34:09;;;;;;;9.38;4.25;;;;;;;;;;6291695;28;19963;-49
2023/04/30 11:37:31;;;;;;;8.63;4.25;;;;;;;;;;6291103;28;20060;-52
2023/04/30 11:40:34;;;;;;;;;;;;;;;;;;6290757;28;20499;-56
2023/04/30 11:43:34;;;;;;;;;;;;;;;;;;6292121;28;20011;-53
2023/04/30 11:46:35;;;;;;;8.13;3.80;;;;;;;;;;6291402;28;20035;-51
2023/04/30 11:49:36;;;;;;;7.55;4.15;;;;;;;;;;6290050;28;20036;-52
2023/04/30 11:52:38;;;;;;;7.32;4.00;;;;;;;;;;6291192;28;20450;-54
2023/04/30 11:55:40;;;;;;;7.47;4.15;;;;;;;;;;6291318;28;20044;-51
2023/04/30 11:58:41;;;;;;;7.80;3.97;;;;;;;;;;6290449;28;20044;-56
2023/04/30 12:01:42;;;;;;;9.27;4.10;;;;;;;;;;6290336;28;20450;-53
2023/04/30 12:04:43;;;;;;;9.05;4.13;;;;;;;;;;6290949;28;20048;-54
2023/04/30 12:08:06;;;;;;;5.43;3.13;;;;;;;;;;6290711;28;20113;-53
2023/04/30 12:11:19;;;;;;;8.57;3.50;;;;;;;;;;6289247;28;20094;-54
2023/04/30 12:14:23;;;;;;;6.63;3.35;;;;;;;;;;6290636;28;20056;-53
2023/04/30 12:17:34;;;;;;;7.68;3.40;;;;;;;;;;6290998;28;20465;-53
2023/04/30 12:20:35;;;;;;;8.07;4.25;;;;;;;;;;6290580;28;20036;-53
2023/04/30 12:23:36;;;;;;;7.22;3.75;;;;;;;;;;6289764;28;20051;-65
2023/04/30 12:26:38;;;;;;;8.88;4.50;;;;;;;;;;6290744;28;20131;-53
2023/04/30 12:29:43;;;;;;;7.38;4.20;;;;;;;;;;6290699;28;20049;-56
2023/04/30 12:32:47;;;;;;;6.10;3.00;;;;;;;;;;6289519;28;20049;-55
2023/04/30 12:35:51;;;;;;;5.95;3.10;;;;;;;;;;6290514;28;20044;-52
2023/04/30 12:39:00;;;;;;;5.65;3.17;;;;;;;;;;6290683;28;20045;-62
2023/04/30 12:42:02;;;;;;;6.40;3.75;;;;;;;;;;6289885;28;20051;-52
2023/04/30 12:45:03;;;;;;;9.70;3.90;;;;;;;;;;6289560;28;20407;-54
2023/04/30 12:48:04;;;;;;;7.53;3.97;;;;;;;;;;6290529;28;20285;-52
2023/04/30 12:51:05;;;;;;;6.13;3.22;;;;;;;;;;6290479;28;20075;-53
2023/04/30 12:54:06;;;;;;;7.60;3.25;;;;;;;;;;6289111;28;20572;-52
2023/04/30 12:57:08;;;;;;;6.65;3.70;;;;;;;;;;6290372;28;20044;-52
2023/04/30 13:00:10;;;;;;;6.20;3.40;;;;;;;;;;6290267;28;20044;-56
2023/04/30 13:03:11;;;;;;;6.05;3.50;;;;;;;;;;6288910;28;20044;-52
2023/04/30 13:06:12;;;;;;;6.93;3.67;;;;;;;;;;6289935;28;20056;-60
2023/04/30 13:09:13;;;;;;;7.32;3.60;;;;;;;;;;6290011;28;20055;-54
2023/04/30 13:12:13;;;;;;;7.40;4.18;;;;;;;;;;6291507;28;20072;-53
2023/04/30 13:15:14;;;;;;;6.22;3.80;;;;;;;;;;6294135;28;20044;-55
2023/04/30 13:18:15;;;;;;;6.68;4.05;;;;;;;;;;6294992;28;20415;-51
2023/04/30 13:21:15;;;;;;;7.28;3.78;;;;;;;;;;6294725;28;20044;-53
2023/04/30 13:24:16;;;;;;;7.07;3.63;;;;;;;;;;6293529;28;20049;-53
2023/04/30 13:27:16;;;;;;;10.15;3.42;;;;;;;;;;6294952;28;20060;-51
2023/04/30 13:30:17;;;;;;;6.82;3.20;;;;;;;;;;6294784;28;20047;-51
2023/04/30 13:33:18;;;;;;;7.72;3.55;;;;;;;;;;6293664;28;20044;-60
2023/04/30 13:36:19;;;;;;;6.40;3.65;;;;;;;;;;6294615;28;20044;-54
2023/04/30 13:39:20;;;;;;;7.47;3.53;;;;;;;;;;6294430;28;20456;-56
2023/04/30 13:42:21;;;;;;;6.88;3.63;;;;;;;;;;6293730;28;20093;-60
2023/04/30 13:45:21;;;;;;;5.72;3.45;;;;;;;;;;6293656;28;20471;-54
2023/04/30 13:48:22;;;;;;;6.93;3.90;;;;;;;;;;6294364;28;20041;-59
2023/04/30 13:51:23;;;;;;;8.23;3.65;;;;;;;;;;6293988;28;20074;-53
2023/04/30 13:54:24;;;;;;;8.15;3.58;;;;;;;;;;6292834;28;20044;-54
2023/04/30 13:57:24;;;;;;;5.63;2.95;;;;;;;;;;6294057;28;20063;-54
2023/04/30 14:00:25;;;;;;;5.93;3.22;;;;;;;;;;6294101;28;20512;-54
2023/04/30 14:03:26;;;;;;;6.15;3.35;;;;;;;;;;6292507;28;20048;-54
2023/04/30 14:06:28;;;;;;;7.28;3.35;;;;;;;;;;6293745;28;20052;-55
2023/04/30 14:09:28;;;;;;;6.95;4.35;;;;;;;;;;6293683;28;20080;-53
2023/04/30 14:12:29;;;;;;;7.32;4.13;;;;;;;;;;6292228;28;20075;-56
2023/04/30 14:15:31;;;;;;;6.95;4.03;;;;;;;;;;6293088;28;20048;-54
2023/04/30 14:18:31;;;;;;;;;;;;;;;;;;6294173;28;20496;-53
2023/04/30 14:21:33;;;;;;;8.50;4.05;;;;;;;;;;6293273;28;19924;-54
2023/04/30 14:24:34;;;;;;;6.65;3.85;;;;;;;;;;6290758;28;20407;-51
2023/04/30 14:27:35;;;;;;;7.10;3.90;;;;;;;;;;6293453;28;20041;-53
2023/04/30 14:30:36;;;;;;;7.50;4.30;;;;;;;;;;6293359;28;20045;-52
2023/04/30 14:33:36;;;;;;;8.43;3.88;;;;;;;;;;6292069;28;20045;-61
2023/04/30 14:36:37;;;;;;;8.13;4.10;;;;;;;;;;6293011;28;20564;-54
2023/04/30 14:39:37;;;;;;;8.05;4.40;;;;;;;;;;6293234;28;20052;-55
2023/04/30 14:42:38;;;;;;;6.35;3.78;;;;;;;;;;6292293;28;20064;-66
2023/04/30 14:45:39;;;;;;;7.43;3.90;;;;;;;;;;6292526;28;20481;-55
2023/04/30 14:48:40;;;;;;;7.10;3.57;;;;;;;;;;6293003;28;20504;-53
2023/04/30 14:51:40;;;;;;;6.38;3.63;;;;;;;;;;6292515;28;20049;-53
2023/04/30 14:54:42;;;;;;;7.10;3.50;;;;;;;;;;6291844;28;20048;-50
2023/04/30 14:57:42;;;;;;;8.00;3.43;;;;;;;;;;6292811;28;20041;-51
2023/04/30 15:00:43;;;;;;;6.78;3.50;;;;;;;;;;6292657;28;20410;-54
2023/04/30 15:03:44;;;;;;;5.15;3.13;;;;;;;;;;6291138;28;20052;-53
2023/04/30 15:06:46;;;;;;;7.10;3.57;;;;;;;;;;6292211;28;20419;-54
2023/04/30 15:09:46;;;;;;;8.93;4.43;;;;;;;;;;6292468;28;20454;-55
2023/04/30 15:12:47;;;;;;;8.02;4.10;;;;;;;;;;6291398;28;20106;-53
2023/04/30 15:15:48;;;;;;;7.55;3.47;;;;;;;;;;6292039;28;20082;-57
2023/04/30 15:18:49;;;;;;;7.60;3.13;;;;;;;;;;6292350;28;20040;-52
2023/04/30 15:21:50;;;;;;;7.72;4.15;;;;;;;;;;6291814;28;20106;-51
2023/04/30 15:24:51;;;;;;;8.52;3.63;;;;;;;;;;6290752;28;20476;-54
2023/04/30 15:27:51;;;;;;;7.07;4.38;;;;;;;;;;6292192;28;20059;-53
2023/04/30 15:30:52;;;;;;;8.33;3.90;;;;;;;;;;6291632;28;20142;-54
2023/04/30 15:33:53;;;;;;;9.25;4.05;;;;;;;;;;6290360;28;20049;-57
2023/04/30 15:36:57;;;;;;;10.20;3.65;;;;;;;;;;6291485;28;20091;-54
2023/04/30 15:39:58;;;;;;;7.57;3.30;;;;;;;;;;6291668;28;20098;-52
2023/04/30 15:42:58;;;;;;;9.25;4.10;;;;;;;;;;6290482;28;20507;-65
2023/04/30 15:45:59;;;;;;;5.93;3.20;;;;;;;;;;6291158;28;20044;-53
2023/04/30 15:49:00;;;;;;;11.73;4.95;;;;;;;;;;6291330;28;20407;-55
2023/04/30 15:52:00;;;;;;;8.10;4.22;;;;;;;;;;6291062;28;20041;-62
2023/04/30 15:55:01;;;;;;;7.70;3.83;;;;;;;;;;6290323;28;20423;-58
2023/04/30 15:58:03;;;;;;;14.40;9.18;;;;;;;;;;6291234;28;20052;-53
2023/04/30 16:01:03;;;;;;;;;;;;;;;;;;6291525;28;20045;-55
2023/04/30 16:04:04;;;;;;;7.05;2.90;;;;;;;;;;6289611;28;20295;-50
2023/04/30 16:07:04;;;;;;;6.38;3.25;;;;;;;;;;6290910;28;20052;-52
2023/04/30 16:10:06;;;;;;;12.25;3.20;;;;;;;;;;6290929;28;20091;-52
2023/04/30 16:13:07;;;;;;;6.65;2.83;;;;;;;;;;6288839;28;20036;-57
2023/04/30 16:16:07;;;;;;;6.90;3.25;;;;;;;;;;6290783;28;20045;-58
2023/04/30 16:19:08;;;;;;;9.60;5.93;;;;;;;;;;6290728;28;20090;-53
2023/04/30 16:22:09;;;;;;;8.85;3.97;;;;;;;;;;6290458;28;20041;-64
2023/04/30 16:25:10;;;;;;;5.63;2.88;;;;;;;;;;6289863;28;20052;-53
2023/04/30 16:28:11;;;;;;;5.43;2.53;;;;;;;;;;6290657;28;20052;-58
2023/04/30 16:31:14;;;;;;;7.60;3.60;;;;;;;;;;6290528;28;20082;-51
2023/04/30 16:34:14;;;;;;;7.57;4.55;;;;;;;;;;6289359;28;20048;-52
2023/04/30 16:37:15;;;;;;;8.32;2.83;;;;;;;;;;6290643;28;20431;-52
2023/04/30 16:40:16;;;;;;;7.43;2.75;;;;;;;;;;6290530;28;20426;-52
2023/04/30 16:43:16;;;;;;;8.63;3.03;;;;;;;;;;6289350;28;20048;-55
2023/04/30 16:46:17;;;;;;;8.70;3.65;;;;;;;;;;6289449;28;20090;-53
2023/04/30 16:49:18;;;;;;;8.32;4.40;;;;;;;;;;6290428;28;20041;-59
2023/04/30 16:52:18;;;;;;;11.32;5.78;;;;;;;;;;6289913;28;20102;-65
2023/04/30 16:55:19;;;;;;;16.38;5.95;;;;;;;;;;6289567;28;20045;-54
2023/04/30 16:58:19;;;;;;;10.40;4.35;;;;;;;;;;6290391;28;20059;-54
2023/04/30 17:01:20;;;;;;;14.32;6.93;;;;;;;;;;6290199;28;20408;-52
2023/04/30 17:04:21;;;;;;;8.88;3.75;;;;;;;;;;6288650;28;20048;-54
2023/04/30 17:07:23;;;;;;;10.80;5.73;;;;;;;;;;6290274;28;20857;-54
2023/04/30 17:10:24;;;;;;;8.45;3.70;;;;;;;;;;6290217;28;20064;-52
2023/04/30 17:13:25;;;;;;;11.35;5.22;;;;;;;;;;6289044;28;20496;-55
2023/04/30 17:16:25;;;;;;;7.55;3.28;;;;;;;;;;6290120;28;20041;-62
2023/04/30 17:19:26;;;;;;;17.20;7.65;;;;;;;;;;6290182;28;20057;-56
2023/04/30 17:22:26;;;;;;;8.75;3.60;;;;;;;;;;6289595;28;20056;-58
2023/04/30 17:25:28;;;;;;;13.07;4.85;;;;;;;;;;6289417;28;20060;-55
2023/04/30 17:28:28;;;;;;;10.32;5.20;;;;;;;;;;6290009;28;20135;-53
2023/04/30 17:31:29;;;;;;;59.10;23.77;;;;;;;;;;6289829;28;20037;-55
2023/04/30 17:34:30;;;;;;;28.70;14.30;;;;;;;;;;6288651;28;20403;-56
2023/04/30 17:37:31;;;;;;;35.88;20.40;;;;;;;;;;6290127;28;20043;-54
2023/04/30 17:40:32;;;;;;;26.63;15.55;;;;;;;;;;6289795;28;20817;-54
2023/04/30 17:43:32;;;;;;;26.27;14.65;;;;;;;;;;6288581;28;20107;-55
2023/04/30 17:46:33;;;;;;;42.88;27.77;;;;;;;;;;6289686;28;20055;-60
2023/04/30 17:49:33;;;;;;;22.00;13.32;;;;;;;;;;6289670;28;20044;-56
2023/04/30 17:52:37;;;;;;;23.50;15.85;;;;;;;;;;6288959;28;20041;-54
2023/04/30 17:55:38;;;;;;;23.92;14.07;;;;;;;;;;6289151;28;20094;-60